Private Wetterstation Sandau
Wetterdaten: Woche 09.07.12 - 15.07.12 (KW28)
Datum Zeit Temp. A. Feuchte A. Luftdruck Regen Wind Richtung Taupunkt Windchill
09.07.2012 00:00 18,3 C 75 % 1008,8 hPa 0,0 l/m 5,4 km/h (1 Bft) S-SW 13,8 C 18,3 C
09.07.2012 01:00 18,4 C 76 % 1009,1 hPa 0,0 l/m 8,6 km/h (2 Bft) W-SW 14,1 C 18,4 C
09.07.2012 02:00 17,5 C 78 % 1009,5 hPa 0,0 l/m 8,9 km/h (2 Bft) W-SW 13,6 C 17,5 C
09.07.2012 03:00 16,6 C 81 % 1009,5 hPa 0,0 l/m 8,4 km/h (2 Bft) W-SW 13,2 C 16,6 C
09.07.2012 04:00 16,1 C 82 % 1009,8 hPa 0,0 l/m 8,5 km/h (2 Bft) W-SW 13,0 C 16,1 C
09.07.2012 05:00 16,7 C 79 % 1009,9 hPa 0,0 l/m 7,6 km/h (2 Bft) S-SW 13,1 C 16,7 C
09.07.2012 06:00 24,3 C 54 % 1009,8 hPa 0,0 l/m 11,7 km/h (2 Bft) W-SW 14,3 C 24,3 C
09.07.2012 07:00 19,2 C 69 % 1010,2 hPa 0,0 l/m 10,1 km/h (2 Bft) W-SW 13,3 C 19,2 C
09.07.2012 08:00 19,5 C 68 % 1010,5 hPa 0,0 l/m 12,8 km/h (3 Bft) SW 13,4 C 19,5 C
09.07.2012 09:00 20,5 C 64 % 1010,5 hPa 0,0 l/m 15,3 km/h (3 Bft) W-SW 13,5 C 20,5 C
09.07.2012 10:00 21,2 C 61 % 1010,6 hPa 0,0 l/m 19,1 km/h (3 Bft) W-SW 13,2 C 21,2 C
09.07.2012 11:00 21,9 C 58 % 1010,7 hPa 0,0 l/m 15,2 km/h (3 Bft) W-SW 13,3 C 21,9 C
09.07.2012 12:00 23,1 C 53 % 1010,8 hPa 0,0 l/m 16,7 km/h (3 Bft) W-SW 13,1 C 23,1 C
09.07.2012 13:00 24,6 C 48 % 1010,7 hPa 0,0 l/m 19,8 km/h (4 Bft) S-SW 12,8 C 24,6 C
09.07.2012 14:00 24,8 C 46 % 1010,6 hPa 0,0 l/m 16,2 km/h (3 Bft) W-SW 12,2 C 24,8 C
09.07.2012 15:00 24,8 C 48 % 1010,5 hPa 0,0 l/m 13,2 km/h (3 Bft) W-SW 13,0 C 24,8 C
09.07.2012 16:00 23,6 C 49 % 1010,4 hPa 0,0 l/m 15,7 km/h (3 Bft) W-SW 12,1 C 23,6 C
09.07.2012 17:00 22,5 C 53 % 1010,4 hPa 0,0 l/m 11,4 km/h (2 Bft) W-SW 12,6 C 22,5 C
09.07.2012 18:00 22,6 C 52 % 1010,4 hPa 0,0 l/m 13,2 km/h (3 Bft) W-SW 12,3 C 22,6 C
09.07.2012 19:00 21,9 C 55 % 1010,3 hPa 0,0 l/m 8,1 km/h (2 Bft) W-SW 12,5 C 21,9 C
09.07.2012 20:00 21,3 C 58 % 1010,1 hPa 0,0 l/m 7,1 km/h (2 Bft) W-SW 12,7 C 21,3 C
09.07.2012 21:00 19,5 C 64 % 1010,5 hPa 0,0 l/m 3,8 km/h (1 Bft) W 12,4 C 19,5 C
09.07.2012 22:00 18,2 C 67 % 1011,2 hPa 0,0 l/m 6,3 km/h (2 Bft) W-SW 12,0 C 18,2 C
09.07.2012 23:00 17,3 C 71 % 1011,8 hPa 0,0 l/m 1,8 km/h (1 Bft) W 11,9 C 17,3 C
10.07.2012 00:00 17,1 C 73 % 1011,8 hPa 0,0 l/m 3,6 km/h (1 Bft) SW 12,3 C 17,1 C
10.07.2012 01:00 16,9 C 75 % 1011,7 hPa 0,0 l/m 4,9 km/h (1 Bft) SW 12,4 C 16,9 C
10.07.2012 02:00 16,6 C 76 % 1011,9 hPa 0,0 l/m 8,6 km/h (2 Bft) W-SW 12,3 C 16,6 C
10.07.2012 03:00 16,4 C 77 % 1012,0 hPa 0,0 l/m 9,0 km/h (2 Bft) W-SW 12,3 C 16,4 C
10.07.2012 04:00 15,9 C 79 % 1011,9 hPa 0,0 l/m 8,3 km/h (2 Bft) W-SW 12,2 C 15,9 C
10.07.2012 05:00 15,9 C 79 % 1012,1 hPa 0,0 l/m 11,0 km/h (2 Bft) W 12,3 C 15,9 C
10.07.2012 06:00 16,5 C 78 % 1012,2 hPa 0,0 l/m 9,4 km/h (2 Bft) W-SW 12,7 C 16,5 C
10.07.2012 07:00 18,8 C 72 % 1012,4 hPa 0,0 l/m 11,2 km/h (2 Bft) W-SW 13,5 C 18,8 C
10.07.2012 08:00 18,9 C 72 % 1012,7 hPa 0,0 l/m 9,5 km/h (2 Bft) W-SW 13,6 C 18,9 C
10.07.2012 09:00 19,6 C 69 % 1012,9 hPa 0,0 l/m 9,0 km/h (2 Bft) W 13,8 C 19,6 C
10.07.2012 10:00 21,2 C 63 % 1013,0 hPa 0,0 l/m 14,2 km/h (3 Bft) W-SW 13,8 C 21,2 C
10.07.2012 11:00 22,8 C 57 % 1013,1 hPa 0,0 l/m 11,4 km/h (2 Bft) W-SW 13,7 C 22,8 C
10.07.2012 12:00 23,2 C 54 % 1012,9 hPa 0,0 l/m 12,6 km/h (3 Bft) W 13,3 C 23,2 C
10.07.2012 13:00 24,7 C 49 % 1012,6 hPa 0,0 l/m 10,8 km/h (2 Bft) SW 13,3 C 24,7 C
10.07.2012 14:00 22,9 C 52 % 1012,5 hPa 0,0 l/m 8,3 km/h (2 Bft) W-SW 12,4 C 22,9 C
10.07.2012 15:00 23,9 C 50 % 1012,4 hPa 0,0 l/m 8,6 km/h (2 Bft) W-SW 12,9 C 23,9 C
10.07.2012 16:00 25,3 C 45 % 1012,1 hPa 0,0 l/m 8,4 km/h (2 Bft) SW 12,6 C 25,3 C
10.07.2012 17:00 25,8 C 43 % 1011,7 hPa 0,0 l/m 9,0 km/h (2 Bft) SW 12,4 C 25,8 C
10.07.2012 18:00 25,9 C 43 % 1011,5 hPa 0,0 l/m 7,6 km/h (2 Bft) SW 12,4 C 25,9 C
10.07.2012 19:00 24,8 C 46 % 1011,3 hPa 0,0 l/m 5,3 km/h (1 Bft) S 12,3 C 24,8 C
10.07.2012 20:00 22,4 C 53 % 1011,5 hPa 0,0 l/m 1,1 km/h (0 Bft) S-SW 12,3 C 22,4 C
10.07.2012 21:00 21,0 C 57 % 1011,7 hPa 0,0 l/m 0,8 km/h (0 Bft) S-SO 12,2 C 21,0 C
10.07.2012 22:00 19,6 C 66 % 1012,0 hPa 0,0 l/m 3,2 km/h (1 Bft) S-SW 12,9 C 19,6 C
10.07.2012 23:00 18,5 C 74 % 1012,0 hPa 0,0 l/m 3,2 km/h (1 Bft) S-SW 13,7 C 18,5 C
11.07.2012 00:00 17,8 C 78 % 1011,6 hPa 0,0 l/m 1,7 km/h (1 Bft) SO 13,9 C 17,8 C
11.07.2012 01:00 16,8 C 82 % 1011,3 hPa 0,0 l/m 0,2 km/h (0 Bft) N 13,7 C 16,8 C
11.07.2012 02:00 15,9 C 84 % 1011,3 hPa 0,0 l/m 0,4 km/h (0 Bft) SW 13,3 C 15,9 C
11.07.2012 03:00 15,3 C 87 % 1011,4 hPa 0,0 l/m 1,9 km/h (1 Bft) W-SW 13,1 C 15,3 C
11.07.2012 04:00 15,0 C 87 % 1010,9 hPa 0,0 l/m 0,0 km/h (0 Bft) SW 12,8 C 15,0 C
11.07.2012 05:00 15,5 C 86 % 1011,1 hPa 0,0 l/m 3,4 km/h (1 Bft) W-SW 13,2 C 15,5 C
11.07.2012 06:00 16,4 C 83 % 1011,3 hPa 0,0 l/m 6,8 km/h (2 Bft) W-SW 13,4 C 16,4 C
11.07.2012 07:00 16,2 C 84 % 1011,4 hPa 0,0 l/m 5,3 km/h (1 Bft) W 13,6 C 16,2 C
11.07.2012 08:00 16,9 C 84 % 1011,8 hPa 0,0 l/m 7,8 km/h (2 Bft) SW 14,2 C 16,9 C
11.07.2012 09:00 18,6 C 81 % 1011,7 hPa 0,0 l/m 6,4 km/h (2 Bft) W 15,2 C 18,6 C
11.07.2012 10:00 20,8 C 70 % 1011,7 hPa 0,0 l/m 8,4 km/h (2 Bft) W-SW 15,1 C 20,8 C
11.07.2012 11:00 21,8 C 59 % 1011,7 hPa 0,0 l/m 10,6 km/h (2 Bft) W-SW 13,4 C 21,8 C
11.07.2012 12:00 22,1 C 53 % 1011,8 hPa 0,0 l/m 13,4 km/h (3 Bft) W-SW 12,1 C 22,1 C
11.07.2012 13:00 23,1 C 48 % 1011,4 hPa 0,0 l/m 17,6 km/h (3 Bft) W-SW 11,6 C 23,1 C
11.07.2012 14:00 22,9 C 44 % 1011,0 hPa 0,0 l/m 13,3 km/h (3 Bft) SW 10,0 C 22,9 C
11.07.2012 15:00 21,8 C 48 % 1011,1 hPa 0,0 l/m 17,5 km/h (3 Bft) W-SW 10,4 C 21,8 C
11.07.2012 16:00 21,1 C 55 % 1011,0 hPa 0,0 l/m 13,4 km/h (3 Bft) W 11,6 C 21,1 C
11.07.2012 17:00 20,3 C 56 % 1011,1 hPa 0,0 l/m 14,6 km/h (3 Bft) W-SW 11,2 C 20,3 C
11.07.2012 18:00 18,0 C 66 % 1011,2 hPa 0,0 l/m 8,5 km/h (2 Bft) W-SW 11,6 C 18,0 C
11.07.2012 19:00 17,1 C 70 % 1010,9 hPa 0,0 l/m 9,0 km/h (2 Bft) W-SW 11,5 C 17,1 C
11.07.2012 20:00 16,0 C 76 % 1010,8 hPa 0,0 l/m 7,6 km/h (2 Bft) SW 11,7 C 16,0 C
11.07.2012 21:00 15,3 C 79 % 1011,0 hPa 0,0 l/m 7,3 km/h (2 Bft) SW 11,7 C 15,3 C
11.07.2012 22:00 14,8 C 82 % 1011,3 hPa 0,0 l/m 4,6 km/h (1 Bft) S-SW 11,7 C 14,8 C
11.07.2012 23:00 14,5 C 83 % 1011,5 hPa 0,0 l/m 4,7 km/h (1 Bft) S-SW 11,6 C 14,5 C
12.07.2012 00:00 14,3 C 84 % 1011,3 hPa 0,0 l/m 7,8 km/h (2 Bft) SW 11,6 C 14,3 C
12.07.2012 01:00 14,0 C 83 % 1011,3 hPa 0,0 l/m 10,8 km/h (2 Bft) W-SW 11,2 C 14,0 C
12.07.2012 02:00 13,3 C 81 % 1011,3 hPa 0,0 l/m 9,2 km/h (2 Bft) W-SW 10,1 C 13,3 C
12.07.2012 03:00 12,4 C 83 % 1011,1 hPa 0,0 l/m 6,8 km/h (2 Bft) W-SW 9,6 C 12,4 C
12.07.2012 04:00 11,8 C 84 % 1011,1 hPa 0,0 l/m 8,2 km/h (2 Bft) W-SW 9,2 C 11,8 C
12.07.2012 05:00 12,2 C 83 % 1011,3 hPa 0,0 l/m 6,5 km/h (2 Bft) S-SW 9,5 C 12,2 C
12.07.2012 06:00 14,6 C 77 % 1011,3 hPa 0,0 l/m 6,9 km/h (2 Bft) SW 10,5 C 14,6 C
12.07.2012 07:00 14,3 C 77 % 1011,3 hPa 0,0 l/m 8,6 km/h (2 Bft) W-SW 10,3 C 14,3 C
12.07.2012 08:00 16,9 C 70 % 1011,3 hPa 0,0 l/m 14,5 km/h (3 Bft) S-SW 11,3 C 16,9 C
12.07.2012 09:00 16,9 C 67 % 1011,0 hPa 0,0 l/m 18,3 km/h (3 Bft) W-SW 10,7 C 16,9 C
12.07.2012 10:00 17,2 C 65 % 1010,8 hPa 0,0 l/m 19,2 km/h (3 Bft) W 10,5 C 17,2 C
12.07.2012 11:00 18,2 C 63 % 1010,6 hPa 0,0 l/m 16,4 km/h (3 Bft) W-SW 11,0 C 18,2 C
12.07.2012 12:00 18,2 C 59 % 1010,6 hPa 0,0 l/m 18,4 km/h (3 Bft) W 9,9 C 18,2 C
12.07.2012 13:00 14,0 C 77 % 1011,1 hPa 1,6 l/m 18,7 km/h (3 Bft) W-SW 9,9 C 14,0 C
12.07.2012 14:00 16,3 C 75 % 1010,8 hPa 0,0 l/m 11,5 km/h (2 Bft) W-SW 11,7 C 16,3 C
12.07.2012 15:00 17,3 C 68 % 1010,6 hPa 0,0 l/m 13,2 km/h (3 Bft) W-SW 11,5 C 17,3 C
12.07.2012 16:00 18,0 C 66 % 1010,7 hPa 0,0 l/m 12,7 km/h (3 Bft) W 11,6 C 18,0 C
12.07.2012 17:00 18,4 C 64 % 1011,0 hPa 0,0 l/m 12,3 km/h (3 Bft) W-SW 11,4 C 18,4 C
12.07.2012 18:00 19,3 C 56 % 1011,2 hPa 0,0 l/m 12,9 km/h (3 Bft) W 10,4 C 19,3 C
12.07.2012 19:00 18,5 C 55 % 1012,1 hPa 0,0 l/m 12,5 km/h (3 Bft) W-SW 9,2 C 18,5 C
12.07.2012 20:00 16,3 C 64 % 1012,4 hPa 0,0 l/m 16,0 km/h (3 Bft) W-SW 9,5 C 16,3 C
12.07.2012 21:00 14,2 C 74 % 1013,1 hPa 0,0 l/m 14,8 km/h (3 Bft) W 9,6 C 14,2 C
12.07.2012 22:00 13,4 C 79 % 1013,7 hPa 0,0 l/m 11,9 km/h (2 Bft) W-SW 9,8 C 13,4 C
12.07.2012 23:00 13,8 C 80 % 1013,9 hPa 0,0 l/m 11,7 km/h (2 Bft) W-SW 10,4 C 13,8 C
13.07.2012 00:00 13,0 C 82 % 1013,7 hPa 0,0 l/m 6,6 km/h (2 Bft) W-SW 9,9 C 13,0 C
13.07.2012 01:00 12,2 C 84 % 1013,4 hPa 0,0 l/m 3,2 km/h (1 Bft) S 9,6 C 12,2 C
13.07.2012 02:00 11,4 C 86 % 1012,8 hPa 0,0 l/m 2,9 km/h (1 Bft) S-SO 9,1 C 11,4 C
13.07.2012 03:00 11,0 C 88 % 1012,3 hPa 0,0 l/m 4,7 km/h (1 Bft) S-SO 9,0 C 11,0 C
13.07.2012 04:00 10,5 C 88 % 1012,0 hPa 0,0 l/m 3,2 km/h (1 Bft) S-SO 8,6 C 10,5 C
13.07.2012 05:00 10,6 C 88 % 1011,5 hPa 0,0 l/m 7,0 km/h (2 Bft) S-SO 8,6 C 10,6 C
13.07.2012 06:00 12,1 C 83 % 1011,2 hPa 0,0 l/m 3,6 km/h (1 Bft) S 9,3 C 12,1 C
13.07.2012 07:00 13,4 C 79 % 1010,5 hPa 0,0 l/m 3,9 km/h (1 Bft) SO 9,8 C 13,4 C
13.07.2012 08:00 14,6 C 75 % 1010,1 hPa 0,0 l/m 4,9 km/h (1 Bft) S-SO 10,3 C 14,6 C
13.07.2012 09:00 15,7 C 73 % 1009,6 hPa 0,0 l/m 6,9 km/h (2 Bft) S 10,9 C 15,7 C
13.07.2012 10:00 16,3 C 74 % 1009,2 hPa 0,0 l/m 7,9 km/h (2 Bft) SO 11,7 C 16,3 C
13.07.2012 11:00 16,3 C 77 % 1008,8 hPa 0,5 l/m 8,6 km/h (2 Bft) S-SO 12,3 C 16,3 C
13.07.2012 12:00 15,6 C 84 % 1008,1 hPa 1,0 l/m 7,4 km/h (2 Bft) S-SO 12,9 C 15,6 C
13.07.2012 13:00 16,5 C 85 % 1007,3 hPa 0,0 l/m 9,5 km/h (2 Bft) SO 13,9 C 16,5 C
13.07.2012 14:00 17,2 C 84 % 1006,5 hPa 0,0 l/m 8,6 km/h (2 Bft) SO 14,5 C 17,2 C
13.07.2012 15:00 17,4 C 83 % 1006,0 hPa 1,6 l/m 10,2 km/h (2 Bft) S-SW 14,4 C 17,4 C
13.07.2012 16:00 17,9 C 82 % 1005,7 hPa 0,5 l/m 9,3 km/h (2 Bft) S 14,7 C 17,9 C
13.07.2012 17:00 17,0 C 85 % 1005,4 hPa 1,0 l/m 4,4 km/h (1 Bft) S-SW 14,4 C 17,0 C
13.07.2012 18:00 17,7 C 82 % 1005,0 hPa 0,0 l/m 8,6 km/h (2 Bft) W-SW 14,7 C 17,7 C
13.07.2012 19:00 16,3 C 85 % 1005,1 hPa 0,5 l/m 6,8 km/h (2 Bft) S-SW 13,8 C 16,3 C
13.07.2012 20:00 15,8 C 87 % 1004,7 hPa 0,5 l/m 3,4 km/h (1 Bft) S-SO 13,6 C 15,8 C
13.07.2012 21:00 15,5 C 88 % 1004,4 hPa 0,0 l/m 1,7 km/h (1 Bft) S-SO 13,5 C 15,5 C
13.07.2012 22:00 15,0 C 89 % 1004,1 hPa 0,0 l/m 2,0 km/h (1 Bft) SO 13,2 C 15,0 C
13.07.2012 23:00 14,5 C 90 % 1003,9 hPa 0,0 l/m 1,9 km/h (1 Bft) S-SO 12,9 C 14,5 C
14.07.2012 00:00 14,1 C 91 % 1003,3 hPa 0,0 l/m 1,9 km/h (1 Bft) S-SO 12,6 C 14,1 C
14.07.2012 01:00 14,3 C 90 % 1002,7 hPa 0,0 l/m 5,8 km/h (2 Bft) S-SO 12,8 C 14,3 C
14.07.2012 02:00 14,4 C 90 % 1002,4 hPa 0,0 l/m 4,9 km/h (1 Bft) S 12,8 C 14,4 C
14.07.2012 03:00 14,7 C 91 % 1001,8 hPa 1,0 l/m 5,6 km/h (1 Bft) S-SO 13,1 C 14,7 C
14.07.2012 04:00 14,4 C 92 % 1001,1 hPa 0,5 l/m 4,3 km/h (1 Bft) S-SO 13,1 C 14,4 C
14.07.2012 05:00 14,4 C 92 % 1000,8 hPa 0,0 l/m 4,7 km/h (1 Bft) S-SW 13,1 C 14,4 C
14.07.2012 06:00 14,6 C 92 % 1000,6 hPa 0,5 l/m 3,5 km/h (1 Bft) S-SO 13,3 C 14,6 C
14.07.2012 07:00 14,9 C 92 % 1000,5 hPa 0,0 l/m 3,6 km/h (1 Bft) S 13,6 C 14,9 C
14.07.2012 08:00 15,1 C 91 % 1000,3 hPa 1,0 l/m 5,7 km/h (1 Bft) SW 13,7 C 15,1 C
14.07.2012 09:00 14,9 C 92 % 1000,2 hPa 2,6 l/m 4,6 km/h (1 Bft) W-SW 13,6 C 14,9 C
14.07.2012 10:00 14,8 C 92 % 1000,7 hPa 1,6 l/m 7,1 km/h (2 Bft) W-SW 13,5 C 14,8 C
14.07.2012 11:00 15,9 C 89 % 1001,1 hPa 0,0 l/m 6,2 km/h (2 Bft) W-NW 14,1 C 15,9 C
14.07.2012 12:00 16,3 C 86 % 1002,1 hPa 0,5 l/m 12,8 km/h (3 Bft) W-SW 13,9 C 16,3 C
14.07.2012 13:00 17,8 C 78 % 1002,5 hPa 0,0 l/m 10,3 km/h (2 Bft) W-SW 13,8 C 17,8 C
14.07.2012 14:00 18,1 C 77 % 1002,8 hPa 1,0 l/m 15,4 km/h (3 Bft) W-SW 13,9 C 18,1 C
14.07.2012 15:00 18,2 C 76 % 1002,9 hPa 0,0 l/m 19,0 km/h (3 Bft) W-SW 13,9 C 18,2 C
14.07.2012 16:00 15,8 C 83 % 1003,9 hPa 1,0 l/m 13,4 km/h (3 Bft) W-SW 13,0 C 15,8 C
14.07.2012 17:00 18,0 C 75 % 1004,2 hPa 0,0 l/m 17,7 km/h (3 Bft) W 13,5 C 18,0 C
14.07.2012 18:00 17,8 C 73 % 1004,7 hPa 0,0 l/m 16,4 km/h (3 Bft) W-SW 12,9 C 17,8 C
14.07.2012 19:00 18,6 C 69 % 1005,1 hPa 0,0 l/m 13,6 km/h (3 Bft) W-SW 12,8 C 18,6 C
14.07.2012 20:00 17,4 C 72 % 1005,4 hPa 0,0 l/m 14,6 km/h (3 Bft) W-SW 12,3 C 17,4 C
14.07.2012 21:00 16,1 C 76 % 1006,2 hPa 0,0 l/m 13,3 km/h (3 Bft) W-SW 12,0 C 16,1 C
14.07.2012 22:00 15,6 C 78 % 1006,8 hPa 0,0 l/m 10,7 km/h (2 Bft) W-SW 11,9 C 15,6 C
14.07.2012 23:00 14,8 C 82 % 1007,0 hPa 0,0 l/m 10,7 km/h (2 Bft) W-SW 11,7 C 14,8 C
15.07.2012 00:00 14,7 C 83 % 1007,1 hPa 0,0 l/m 8,8 km/h (2 Bft) W-SW 11,8 C 14,7 C
15.07.2012 01:00 14,5 C 85 % 1007,2 hPa 0,0 l/m 7,6 km/h (2 Bft) W-SW 12,0 C 14,5 C
15.07.2012 02:00 14,1 C 86 % 1007,5 hPa 0,0 l/m 6,7 km/h (2 Bft) W-SW 11,8 C 14,1 C
15.07.2012 03:00 14,0 C 87 % 1007,8 hPa 0,0 l/m 7,7 km/h (2 Bft) W 11,9 C 14,0 C
15.07.2012 04:00 14,1 C 88 % 1008,2 hPa 0,0 l/m 7,2 km/h (2 Bft) W-SW 12,1 C 14,1 C
15.07.2012 05:00 14,0 C 88 % 1008,8 hPa 0,0 l/m 5,3 km/h (1 Bft) SW 12,0 C 14,0 C
15.07.2012 06:00 14,2 C 88 % 1009,0 hPa 0,0 l/m 3,2 km/h (1 Bft) W-SW 12,2 C 14,2 C
15.07.2012 07:00 14,4 C 88 % 1009,2 hPa 1,0 l/m 2,2 km/h (1 Bft) W-SW 12,5 C 14,4 C
15.07.2012 08:00 14,2 C 90 % 1009,7 hPa 1,0 l/m 1,7 km/h (1 Bft) W 12,5 C 14,2 C
15.07.2012 09:00 14,2 C 89 % 1010,3 hPa 1,6 l/m 4,3 km/h (1 Bft) W 12,5 C 14,2 C
15.07.2012 10:00 15,9 C 85 % 1010,6 hPa 0,5 l/m 4,4 km/h (1 Bft) W-SW 13,4 C 15,9 C
15.07.2012 11:00 18,6 C 71 % 1011,0 hPa 0,0 l/m 10,3 km/h (2 Bft) W-SW 13,2 C 18,6 C
15.07.2012 12:00 18,1 C 68 % 1011,2 hPa 0,0 l/m 9,4 km/h (2 Bft) W-SW 12,1 C 18,1 C
15.07.2012 13:00 19,6 C 60 % 1011,5 hPa 0,0 l/m 13,1 km/h (3 Bft) W-SW 11,6 C 19,6 C
15.07.2012 14:00 20,8 C 57 % 1011,6 hPa 0,0 l/m 11,6 km/h (2 Bft) W-SW 11,9 C 20,8 C
15.07.2012 15:00 21,8 C 51 % 1011,6 hPa 0,0 l/m 10,6 km/h (2 Bft) N-NO 11,2 C 21,8 C
15.07.2012 16:00 21,3 C 52 % 1012,1 hPa 0,0 l/m 9,1 km/h (2 Bft) NW 11,0 C 21,3 C
15.07.2012 17:00 20,4 C 52 % 1012,7 hPa 0,0 l/m 7,0 km/h (2 Bft) W-NW 10,3 C 20,4 C
15.07.2012 18:00 20,1 C 50 % 1012,9 hPa 0,0 l/m 6,2 km/h (2 Bft) N-NO 9,5 C 20,1 C
15.07.2012 19:00 20,1 C 49 % 1013,6 hPa 0,0 l/m 8,8 km/h (2 Bft) NO 8,9 C 20,1 C
15.07.2012 20:00 18,4 C 53 % 1014,4 hPa 0,0 l/m 4,3 km/h (1 Bft) N-NO 8,5 C 18,4 C
15.07.2012 21:00 16,4 C 62 % 1015,0 hPa 0,0 l/m 1,2 km/h (1 Bft) N-NW 9,2 C 16,4 C
15.07.2012 22:00 15,4 C 67 % 1015,4 hPa 0,0 l/m 0,4 km/h (0 Bft) W-NW 9,4 C 15,4 C
15.07.2012 23:00 15,0 C 71 % 1016,0 hPa 0,0 l/m 0,7 km/h (0 Bft) W-NW 9,7 C 15,0 C
Min-Datum _ 13.07.12 11.07.12 14.07.12 - 09.07.12 - 15.07.12 13.07.12
_ Min-Zeit 04:56 14:41 09:01 - 20:06 - 19:41 04:56
Minimum _ 10,3 C 41 % 1000,1 hPa - 0,0 km/h (0 Bft) - 8,2 C 10,3 C
Max-Datum _ 09.07.12 14.07.12 15.07.12 14.07.12 09.07.12 - 11.07.12 09.07.12
_ Max-Zeit 06:31 04:11 23:41 09:01 10:06 - 09:26 06:31
Maximum _ 28,4 C 92 % 1016,3 hPa 2,6 l/m 34,2 km/h
W-SW (5 Bft)
- 16,0 C 28,4 C
Durchschnitt _ 17,5 C 73 % 1009,6 hPa #21,2 l/m 8,6 km/h (2 Bft) W-SW 12,2 C 17,5 C
(c) by David Heller